Time;durP1;ratioP1;P1;durP2;ratioP2;P2;SDS_P1;SDS_P2;PMS_P1;PMS_P2;Temp;Humidity;BMP_temperature;BMP_pressure;BME280_temperature;BME280_humidity;BME280_pressure;Samples;Min_cycle;Max_cycle;Signal;HPM_P1;HPM_P2
2023/07/23 00:01:12;;;;;;;;;;;;;;;;;;6215054;23;19966;-91
2023/07/23 00:03:42;;;;;;;;;;;;;;;;;;6239586;23;19915;-93
2023/07/23 00:06:12;;;;;;;;;;;;;;;;;;6234325;23;19928;-90
2023/07/23 00:08:38;;;;;;;;;;;;;;;;;;6216276;23;19923;-91
2023/07/23 00:11:04;;;;;;;;;;;;;;;;;;6216346;23;19907;-92
2023/07/23 00:13:30;;;;;;;;;;;;;;;;;;6216314;23;19915;-91
2023/07/23 00:15:56;;;;;;;;;;;;;;;;;;6218279;23;20302;-93
2023/07/23 00:18:22;;;;;;;;;;;;;;;;;;6212566;23;19926;-92
2023/07/23 00:20:48;;;;;;;;;;;;;;;;;;6217098;23;19946;-93
2023/07/23 00:23:16;;;;;;;;;;;;;;;;;;6241792;23;19919;-94
2023/07/23 00:28:31;;;;;;;;;;;;;;;;;;6242498;23;19922;-93
2023/07/23 00:30:58;;;;;;;;;;;;;;;;;;6220140;23;19920;-94
2023/07/23 00:33:24;;;;;;;;;;;;;;;;;;6217157;23;20327;-91
2023/07/23 00:35:54;;;;;;;;;;;;;;;;;;6241311;23;19920;-91
2023/07/23 00:38:22;;;;;;;;;;;;;;;;;;6244338;23;19998;-91
2023/07/23 00:40:48;;;;;;;;;;;;;;;;;;6243137;23;19920;-93
2023/07/23 00:43:15;;;;;;;;;;;;;;;;;;6218876;23;19915;-94
2023/07/23 00:46:00;;;;;;;;;;;;;;;;;;6248610;23;19925;-92
2023/07/23 00:48:26;;;;;;;;;;;;;;;;;;6219783;23;19923;-92
2023/07/23 00:50:55;;;;;;;;;;;;;;;;;;6245236;22;19916;-92
2023/07/23 00:53:29;;;;;;;;;;;;;;;;;;6244542;23;19922;-93
2023/07/23 00:55:58;;;;;;;;;;;;;;;;;;6218410;23;19920;-93
2023/07/23 00:58:24;;;;;;;;;;;;;;;;;;6217810;23;19922;-93
2023/07/23 01:00:50;;;;;;;;;;;;;;;;;;6215769;23;19951;-93
2023/07/23 01:03:16;;;;;;;;;;;;;;;;;;6217499;23;19920;-92
2023/07/23 01:05:42;;;;;;;;;;;;;;;;;;6219903;23;19958;-92
2023/07/23 01:08:11;;;;;;;;;;;;;;;;;;6218488;23;19962;-91
2023/07/23 01:10:38;;;;;;;;;;;;;;;;;;6216685;23;19923;-92
2023/07/23 01:13:04;;;;;;;;;;;;;;;;;;6241932;23;19943;-92
2023/07/23 01:15:34;;;;;;;;;;;;;;;;;;6220969;23;19927;-93
2023/07/23 01:18:05;;;;;;;;;;;;;;;;;;6270697;22;19903;-94
2023/07/23 01:20:45;;;;;;;;;;;;;;;;;;6245525;23;19907;-92
2023/07/23 01:23:12;;;;;;;;;;;;;;;;;;6243555;23;19919;-91
2023/07/23 01:25:38;;;;;;;;;;;;;;;;;;6219671;23;19903;-94
2023/07/23 01:30:40;;;;;;;;;;;;;;;;;;6260800;22;19973;-91
2023/07/23 01:33:07;;;;;;;;;;;;;;;;;;6269639;22;19920;-93
2023/07/23 01:35:35;;;;;;;;;;;;;;;;;;6245731;23;19919;-90
2023/07/23 01:40:53;;;;;;;;;;;;;;;;;;6270801;22;19919;-93
2023/07/23 01:43:19;;;;;;;;;;;;;;;;;;6244858;23;19919;-91
2023/07/23 01:45:48;;;;;;;;;;;;;;;;;;6244347;23;19903;-92
2023/07/23 01:48:14;;;;;;;;;;;;;;;;;;6246353;23;19939;-94
2023/07/23 01:50:40;;;;;;;;;;;;;;;;;;6247135;23;19987;-94
2023/07/23 01:53:09;;;;;;;;;;;;;;;;;;6245468;22;19931;-92
2023/07/23 01:55:36;;;;;;;;;;;;;;;;;;6271411;22;19916;-93
2023/07/23 01:58:02;;;;;;;;;;;;;;;;;;6244806;23;19927;-91
2023/07/23 02:00:28;;;;;;;;;;;;;;;;;;6245127;23;19915;-93
2023/07/23 02:02:54;;;;;;;;;;;;;;;;;;6245285;23;19919;-91
2023/07/23 02:05:23;;;;;;;;;;;;;;;;;;6265732;23;19955;-91
2023/07/23 02:07:55;;;;;;;;;;;;;;;;;;6244026;23;19899;-91
2023/07/23 02:10:21;;;;;;;;;;;;;;;;;;6245266;23;19910;-93
2023/07/23 02:12:47;;;;;;;;;;;;;;;;;;6241966;23;19919;-92
2023/07/23 02:15:20;;;;;;;;;;;;;;;;;;6240475;23;19903;-92
2023/07/23 02:17:46;;;;;;;;;;;;;;;;;;6243022;23;19938;-93
2023/07/23 02:20:15;;;;;;;;;;;;;;;;;;6244416;23;19959;-92
2023/07/23 02:22:41;;;;;;;;;;;;;;;;;;6268879;22;19949;-93
2023/07/23 02:25:19;;;;;;;;;;;;;;;;;;6265855;23;19955;-92
2023/07/23 02:27:48;;;;;;;;;;;;;;;;;;6240009;23;20242;-93
2023/07/23 02:30:31;;;;;;;;;;;;;;;;;;6267127;23;19922;-93
2023/07/23 02:32:57;;;;;;;;;;;;;;;;;;6239956;23;19966;-93
2023/07/23 02:38:10;;;;;;;;;;;;;;;;;;6267131;23;19916;-93
2023/07/23 02:40:35;;;;;;;;;;;;;;;;;;6241558;23;19924;-91
2023/07/23 02:43:02;;;;;;;;;;;;;;;;;;6241059;23;19938;-94
2023/07/23 02:45:28;;;;;;;;;;;;;;;;;;6242145;23;19919;-93
2023/07/23 02:47:54;;;;;;;;;;;;;;;;;;6267465;22;19927;-91
2023/07/23 02:50:20;;;;;;;;;;;;;;;;;;6241140;23;19927;-93
2023/07/23 02:52:49;;;;;;;;;;;;;;;;;;6242637;23;19899;-92
2023/07/23 02:55:18;;;;;;;;;;;;;;;;;;6266944;23;19982;-92
2023/07/23 02:57:47;;;;;;;;;;;;;;;;;;6241700;23;19939;-93
2023/07/23 03:00:13;;;;;;;;;;;;;;;;;;6265177;22;19920;-91
2023/07/23 03:02:40;;;;;;;;;;;;;;;;;;6262357;23;19946;-91
2023/07/23 03:08:05;;;;;;;;;;;;;;;;;;6266512;23;19919;-91
2023/07/23 03:10:31;;;;;;;;;;;;;;;;;;6240473;23;19915;-90
2023/07/23 03:13:00;;;;;;;;;;;;;;;;;;6241009;23;19921;-91
2023/07/23 03:15:26;;;;;;;;;;;;;;;;;;6241696;23;19915;-92
2023/07/23 03:17:55;;;;;;;;;;;;;;;;;;6266626;22;19982;-89
2023/07/23 03:20:21;;;;;;;;;;;;;;;;;;6240587;23;20394;-92
2023/07/23 03:22:47;;;;;;;;;;;;;;;;;;6239834;23;19919;-92
2023/07/23 03:25:13;;;;;;;;;;;;;;;;;;6240761;23;19915;-92
2023/07/23 03:27:43;;;;;;;;;;;;;;;;;;6239597;23;20334;-92
2023/07/23 03:30:09;;;;;;;;;;;;;;;;;;6240241;23;20282;-93
2023/07/23 03:32:39;;;;;;;;;;;;;;;;;;6240301;23;19926;-90
2023/07/23 03:35:05;;;;;;;;;;;;;;;;;;6238729;23;19916;-92
2023/07/23 03:37:31;;;;;;;;;;;;;;;;;;6241890;23;19930;-91
2023/07/23 03:40:00;;;;;;;;;;;;;;;;;;6241687;23;19919;-91
2023/07/23 03:42:28;;;;;;;;;;;;;;;;;;6239470;23;19904;-92
2023/07/23 03:44:57;;;;;;;;;;;;;;;;;;6264923;23;19920;-95
2023/07/23 03:47:23;;;;;;;;;;;;;;;;;;6240378;23;19927;-91
2023/07/23 03:49:58;;;;;;;;;;;;;;;;;;6244455;22;19926;-91
2023/07/23 03:52:25;;;;;;;;;;;;;;;;;;6240657;23;20323;-91
2023/07/23 03:54:52;;;;;;;;;;;;;;;;;;6240255;22;19916;-91
2023/07/23 03:57:18;;;;;;;;;;;;;;;;;;6238358;23;19919;-91
2023/07/23 03:59:44;;;;;;;;;;;;;;;;;;6241721;23;19923;-93
2023/07/23 04:02:10;;;;;;;;;;;;;;;;;;6241084;23;19915;-93
2023/07/23 04:04:35;;;;;;;;;;;;;;;;;;6267041;23;19915;-92
2023/07/23 04:07:01;;;;;;;;;;;;;;;;;;6239397;23;20365;-92
2023/07/23 04:09:27;;;;;;;;;;;;;;;;;;6240809;23;19920;-90
2023/07/23 04:11:53;;;;;;;;;;;;;;;;;;6239403;23;19992;-91
2023/07/23 04:14:19;;;;;;;;;;;;;;;;;;6239804;23;19916;-91
2023/07/23 04:16:45;;;;;;;;;;;;;;;;;;6238766;23;19916;-92
2023/07/23 04:19:13;;;;;;;;;;;;;;;;;;6242063;23;19916;-89
2023/07/23 04:21:41;;;;;;;;;;;;;;;;;;6263373;23;19923;-92
2023/07/23 04:24:08;;;;;;;;;;;;;;;;;;6264986;23;20400;-92
2023/07/23 04:26:33;;;;;;;;;;;;;;;;;;6264477;23;19949;-93
2023/07/23 04:29:18;;;;;;;;;;;;;;;;;;6237832;23;19939;-90
2023/07/23 04:31:47;;;;;;;;;;;;;;;;;;6239922;23;19919;-93
2023/07/23 04:34:15;;;;;;;;;;;;;;;;;;6239781;23;20010;-91
2023/07/23 04:36:41;;;;;;;;;;;;;;;;;;6265549;23;19916;-92
2023/07/23 04:39:07;;;;;;;;;;;;;;;;;;6264006;23;19923;-89
2023/07/23 04:41:33;;;;;;;;;;;;;;;;;;6237883;23;19959;-90
2023/07/23 04:44:00;;;;;;;;;;;;;;;;;;6263100;22;20250;-90
2023/07/23 04:46:26;;;;;;;;;;;;;;;;;;6240948;23;19919;-92
2023/07/23 04:48:52;;;;;;;;;;;;;;;;;;6263871;23;19923;-89
2023/07/23 04:51:18;;;;;;;;;;;;;;;;;;6239064;23;19971;-90
2023/07/23 04:53:44;;;;;;;;;;;;;;;;;;6236293;23;19923;-86
2023/07/23 04:56:10;;;;;;;;;;;;;;;;;;6257563;23;19923;-88
2023/07/23 04:58:36;;;;;;;;;;;;;;;;;;6232685;23;19916;-88
2023/07/23 05:01:02;;;;;;;;;;;;;;;;;;6231235;23;19923;-88
2023/07/23 05:03:29;;;;;;;;;;;;;;;;;;6236945;23;19930;-89
2023/07/23 05:05:55;;;;;;;;;;;;;;;;;;6237395;23;19920;-88
2023/07/23 05:08:21;;;;;;;;;;;;;;;;;;6238794;23;19916;-88
2023/07/23 05:10:47;;;;;;;;;;;;;;;;;;6238674;23;19939;-90
2023/07/23 05:13:13;;;;;;;;;;;;;;;;;;6235719;23;19915;-88
2023/07/23 05:15:40;;;;;;;;;;;;;;;;;;6264865;23;19915;-87
2023/07/23 05:18:09;;;;;;;;;;;;;;;;;;6240962;23;19907;-88
2023/07/23 05:20:35;;;;;;;;;;;;;;;;;;6261061;23;19915;-89
2023/07/23 05:23:01;;;;;;;;;;;;;;;;;;6265414;23;19954;-90
2023/07/23 05:25:30;;;;;;;;;;;;;;;;;;6263219;23;19916;-89
2023/07/23 05:27:56;;;;;;;;;;;;;;;;;;6236106;23;19945;-89
2023/07/23 05:30:23;;;;;;;;;;;;;;;;;;6264111;23;19923;-89
2023/07/23 05:32:50;;;;;;;;;;;;;;;;;;6239326;23;20001;-88
2023/07/23 05:35:17;;;;;;;;;;;;;;;;;;6237785;23;19939;-89
2023/07/23 05:37:43;;;;;;;;;;;;;;;;;;6236108;23;19939;-88
2023/07/23 05:40:10;;;;;;;;;;;;;;;;;;6238725;23;19922;-89
2023/07/23 05:42:36;;;;;;;;;;;;;;;;;;6262983;23;19922;-89
2023/07/23 05:45:05;;;;;;;;;;;;;;;;;;6237704;23;19922;-89
2023/07/23 05:50:35;;;;;;;;;;;;;;;;;;6277141;23;19914;-88
2023/07/23 05:53:01;;;;;;;;;;;;;;;;;;6260310;23;19899;-89
2023/07/23 05:55:27;;;;;;;;;;;;;;;;;;6264938;23;19915;-87
2023/07/23 05:57:53;;;;;;;;;;;;;;;;;;6238668;23;19900;-89
2023/07/23 06:00:19;;;;;;;;;;;;;;;;;;6239184;23;19942;-89
2023/07/23 06:02:45;;;;;;;;;;;;;;;;;;6237162;23;19923;-86
2023/07/23 06:05:11;;;;;;;;;;;;;;;;;;6233013;23;19922;-88
2023/07/23 06:07:40;;;;;;;;;;;;;;;;;;6257747;23;19927;-88
2023/07/23 06:10:06;;;;;;;;;;;;;;;;;;6238375;23;19915;-89
2023/07/23 06:12:33;;;;;;;;;;;;;;;;;;6236981;23;19915;-89
2023/07/23 06:14:59;;;;;;;;;;;;;;;;;;6239332;23;19939;-88
2023/07/23 06:17:25;;;;;;;;;;;;;;;;;;6238244;23;19915;-88
2023/07/23 06:19:51;;;;;;;;;;;;;;;;;;6237410;23;20361;-88
2023/07/23 06:22:17;;;;;;;;;;;;;;;;;;6258011;23;19915;-86
2023/07/23 06:24:45;;;;;;;;;;;;;;;;;;6239868;23;19915;-88
2023/07/23 06:27:12;;;;;;;;;;;;;;;;;;6237881;23;19924;-88
2023/07/23 06:29:47;;;;;;;;;;;;;;;;;;6240564;23;19939;-88
2023/07/23 06:32:13;;;;;;;;;;;;;;;;;;6236346;23;19938;-88
2023/07/23 06:34:42;;;;;;;;;;;;;;;;;;6238940;23;19915;-88
2023/07/23 06:37:08;;;;;;;;;;;;;;;;;;6237175;23;19998;-87
2023/07/23 06:39:34;;;;;;;;;;;;;;;;;;6237501;23;19915;-86
2023/07/23 06:42:03;;;;;;;;;;;;;;;;;;6264548;23;19922;-87
2023/07/23 06:44:29;;;;;;;;;;;;;;;;;;6235940;23;19990;-88
2023/07/23 06:46:57;;;;;;;;;;;;;;;;;;6261236;23;19995;-89
2023/07/23 06:49:28;;;;;;;;;;;;;;;;;;6234682;23;19916;-87
2023/07/23 06:51:54;;;;;;;;;;;;;;;;;;6237416;23;19915;-87
2023/07/23 06:54:20;;;;;;;;;;;;;;;;;;6230519;23;19922;-88
2023/07/23 06:56:49;;;;;;;;;;;;;;;;;;6262648;23;19916;-87
2023/07/23 06:59:15;;;;;;;;;;;;;;;;;;6233841;23;19916;-86
2023/07/23 07:01:46;;;;;;;;;;;;;;;;;;6257108;23;19922;-85
2023/07/23 07:04:11;;;;;;;;;;;;;;;;;;6263033;23;20327;-86
2023/07/23 07:06:39;;;;;;;;;;;;;;;;;;6233591;23;19946;-87
2023/07/23 07:09:05;;;;;;;;;;;;;;;;;;6233636;23;19916;-87
2023/07/23 07:11:34;;;;;;;;;;;;;;;;;;6258222;23;19916;-88
2023/07/23 07:14:00;;;;;;;;;;;;;;;;;;6237231;23;19927;-87
2023/07/23 07:16:32;;;;;;;;;;;;;;;;;;6234727;23;19915;-87
2023/07/23 07:18:58;;;;;;;;;;;;;;;;;;6231512;23;19951;-88
2023/07/23 07:21:25;;;;;;;;;;;;;;;;;;6235965;23;19922;-88
2023/07/23 07:23:51;;;;;;;;;;;;;;;;;;6236853;23;19969;-86
2023/07/23 07:26:21;;;;;;;;;;;;;;;;;;6261059;22;19919;-87
2023/07/23 07:28:48;;;;;;;;;;;;;;;;;;6260266;23;20347;-85
2023/07/23 07:31:15;;;;;;;;;;;;;;;;;;6233488;23;19915;-85
2023/07/23 07:33:44;;;;;;;;;;;;;;;;;;6233811;23;19922;-87
2023/07/23 07:36:19;;;;;;;;;;;;;;;;;;6236405;23;19922;-87
2023/07/23 07:38:45;;;;;;;;;;;;;;;;;;6234254;23;20250;-87
2023/07/23 07:41:11;;;;;;;;;;;;;;;;;;6234418;23;19923;-87
2023/07/23 07:43:37;;;;;;;;;;;;;;;;;;6237363;23;19922;-86
2023/07/23 07:46:05;;;;;;;;;;;;;;;;;;6233982;23;19908;-87
2023/07/23 07:48:31;;;;;;;;;;;;;;;;;;6237229;23;19916;-86
2023/07/23 07:50:59;;;;;;;;;;;;;;;;;;6260372;23;19919;-86
2023/07/23 07:53:25;;;;;;;;;;;;;;;;;;6234166;23;19915;-87
2023/07/23 07:55:51;;;;;;;;;;;;;;;;;;6232072;23;19955;-85
2023/07/23 07:58:24;;;;;;;;;;;;;;;;;;6234386;23;19923;-86
2023/07/23 08:00:50;;;;;;;;;;;;;;;;;;6234964;23;19915;-86
2023/07/23 08:03:16;;;;;;;;;;;;;;;;;;6235169;23;19922;-86
2023/07/23 08:05:42;;;;;;;;;;;;;;;;;;6234927;23;19967;-86
2023/07/23 08:08:08;;;;;;;;;;;;;;;;;;6258898;23;19942;-86
2023/07/23 08:10:34;;;;;;;;;;;;;;;;;;6235047;23;19927;-86
2023/07/23 08:13:01;;;;;;;;;;;;;;;;;;6232814;23;19923;-85
2023/07/23 08:15:27;;;;;;;;;;;;;;;;;;6233794;23;19921;-86
2023/07/23 08:17:54;;;;;;;;;;;;;;;;;;6233723;23;19919;-87
2023/07/23 08:20:20;;;;;;;;;;;;;;;;;;6257672;23;19916;-86
2023/07/23 08:22:46;;;;;;;;;;;;;;;;;;6232848;23;19916;-87
2023/07/23 08:25:13;;;;;;;;;;;;;;;;;;6259846;23;19916;-87
2023/07/23 08:27:39;;;;;;;;;;;;;;;;;;6233602;23;19927;-87
2023/07/23 08:30:14;;;;;;;;;;;;;;;;;;6230848;23;19919;-86
2023/07/23 08:32:43;;;;;;;;;;;;;;;;;;6235718;23;19919;-86
2023/07/23 08:35:15;;;;;;;;;;;;;;;;;;6233183;23;19916;-87
2023/07/23 08:40:45;;;;;;;;;;;;;;;;;;6272812;23;19931;-86
2023/07/23 08:43:20;;;;;;;;;;;;;;;;;;6235154;23;19946;-85
2023/07/23 08:45:46;;;;;;;;;;;;;;;;;;6260417;23;19919;-85
2023/07/23 08:48:12;;;;;;;;;;;;;;;;;;6237178;23;19915;-85
2023/07/23 08:50:38;;;;;;;;;;;;;;;;;;6235795;23;20303;-86
2023/07/23 08:53:05;;;;;;;;;;;;;;;;;;6236882;23;19916;-86
2023/07/23 08:55:32;;;;;;;;;;;;;;;;;;6236315;23;19915;-86
2023/07/23 08:57:59;;;;;;;;;;;;;;;;;;6261642;23;19947;-85
2023/07/23 09:00:27;;;;;;;;;;;;;;;;;;6261891;23;19916;-86
2023/07/23 09:02:54;;;;;;;;;;;;;;;;;;6258667;23;19916;-86
2023/07/23 09:05:20;;;;;;;;;;;;;;;;;;6236247;23;19923;-86
2023/07/23 09:07:46;;;;;;;;;;;;;;;;;;6235162;23;20345;-86
2023/07/23 09:10:12;;;;;;;;;;;;;;;;;;6236472;23;19915;-84
2023/07/23 09:12:38;;;;;;;;;;;;;;;;;;6235833;23;19919;-84
2023/07/23 09:15:05;;;;;;;;;;;;;;;;;;6259318;23;19938;-86
2023/07/23 09:17:32;;;;;;;;;;;;;;;;;;6261661;23;19915;-86
2023/07/23 09:19:58;;;;;;;;;;;;;;;;;;6235230;23;19920;-84
2023/07/23 09:25:27;;;;;;;;;;;;;;;;;;6270836;23;19915;-86
2023/07/23 09:30:59;;;;;;;;;;;;;;;;;;6270572;23;20246;-86
2023/07/23 09:33:26;;;;;;;;;;;;;;;;;;6261835;23;19937;-88
2023/07/23 09:35:52;;;;;;;;;;;;;;;;;;6231683;23;20289;-85
2023/07/23 09:38:19;;;;;;;;;;;;;;;;;;6232546;23;19923;-86
2023/07/23 09:40:48;;;;;;;;;;;;;;;;;;6260425;23;19922;-86
2023/07/23 09:43:17;;;;;;;;;;;;;;;;;;6235168;23;19955;-86
2023/07/23 09:45:44;;;;;;;;;;;;;;;;;;6234801;23;19915;-87
2023/07/23 09:48:10;;;;;;;;;;;;;;;;;;6235224;23;19916;-89
2023/07/23 09:50:36;;;;;;;;;;;;;;;;;;6232352;23;19976;-87
2023/07/23 09:55:41;;;;;;;;;;;;;;;;;;6258125;23;19916;-87
2023/07/23 09:58:16;;;;;;;;;;;;;;;;;;6261354;23;19916;-87
2023/07/23 10:00:42;;;;;;;;;;;;;;;;;;6228250;23;20398;-89
2023/07/23 10:03:08;;;;;;;;;;;;;;;;;;6260009;23;19942;-86
2023/07/23 10:05:34;;;;;;;;;;;;;;;;;;6237078;23;19907;-85
2023/07/23 10:08:00;;;;;;;;;;;;;;;;;;6236745;23;19922;-87
2023/07/23 10:10:26;;;;;;;;;;;;;;;;;;6238012;23;19923;-87
2023/07/23 10:12:52;;;;;;;;;;;;;;;;;;6236294;23;19955;-86
2023/07/23 10:15:19;;;;;;;;;;;;;;;;;;6238323;23;19919;-86
2023/07/23 10:17:45;;;;;;;;;;;;;;;;;;6264031;23;19915;-88
2023/07/23 10:20:11;;;;;;;;;;;;;;;;;;6264323;23;19939;-87
2023/07/23 10:22:39;;;;;;;;;;;;;;;;;;6238702;23;19915;-85
2023/07/23 10:25:05;;;;;;;;;;;;;;;;;;6240497;23;19911;-88
2023/07/23 10:27:31;;;;;;;;;;;;;;;;;;6240306;23;19920;-87
2023/07/23 10:30:10;;;;;;;;;;;;;;;;;;6240292;23;19916;-88
2023/07/23 10:32:36;;;;;;;;;;;;;;;;;;6239625;23;19920;-87
2023/07/23 10:35:06;;;;;;;;;;;;;;;;;;6262761;23;19956;-87
2023/07/23 10:37:32;;;;;;;;;;;;;;;;;;6236684;23;19915;-87
2023/07/23 10:40:00;;;;;;;;;;;;;;;;;;6232875;23;19923;-85
2023/07/23 10:42:43;;;;;;;;;;;;;;;;;;6259828;23;19915;-86
2023/07/23 10:45:10;;;;;;;;;;;;;;;;;;6238575;23;19915;-86
2023/07/23 10:47:36;;;;;;;;;;;;;;;;;;6259495;23;19920;-87
2023/07/23 10:50:02;;;;;;;;;;;;;;;;;;6238433;23;19960;-86
2023/07/23 10:52:28;;;;;;;;;;;;;;;;;;6238206;23;20361;-88
2023/07/23 10:54:55;;;;;;;;;;;;;;;;;;6232326;23;19982;-87
2023/07/23 10:57:21;;;;;;;;;;;;;;;;;;6234329;23;19915;-87
2023/07/23 10:59:47;;;;;;;;;;;;;;;;;;6236514;23;19965;-87
2023/07/23 11:02:15;;;;;;;;;;;;;;;;;;6262897;23;19994;-86
2023/07/23 11:04:46;;;;;;;;;;;;;;;;;;6236309;23;19915;-86
2023/07/23 11:07:14;;;;;;;;;;;;;;;;;;6233347;23;19919;-88
2023/07/23 11:09:40;;;;;;;;;;;;;;;;;;6260745;23;20001;-86
2023/07/23 11:12:06;;;;;;;;;;;;;;;;;;6261677;23;19939;-88
2023/07/23 11:14:32;;;;;;;;;;;;;;;;;;6263243;23;19920;-87
2023/07/23 11:16:59;;;;;;;;;;;;;;;;;;6235981;23;19919;-86
2023/07/23 11:19:27;;;;;;;;;;;;;;;;;;6238525;23;19916;-86
2023/07/23 11:21:54;;;;;;;;;;;;;;;;;;6259041;23;19952;-87
2023/07/23 11:24:20;;;;;;;;;;;;;;;;;;6237713;23;19961;-88
2023/07/23 11:26:46;;;;;;;;;;;;;;;;;;6263780;23;19919;-85
2023/07/23 11:29:12;;;;;;;;;;;;;;;;;;6232296;23;19922;-86
2023/07/23 11:31:38;;;;;;;;;;;;;;;;;;6231181;23;19922;-87
2023/07/23 11:34:05;;;;;;;;;;;;;;;;;;6233387;23;19916;-86
2023/07/23 11:36:31;;;;;;;;;;;;;;;;;;6229850;23;19982;-87
2023/07/23 11:38:57;;;;;;;;;;;;;;;;;;6231023;23;19923;-88
2023/07/23 11:41:23;;;;;;;;;;;;;;;;;;6227633;23;19916;-86
2023/07/23 11:43:48;;;;;;;;;;;;;;;;;;6229236;23;19916;-86
2023/07/23 11:46:16;;;;;;;;;;;;;;;;;;6232994;23;19919;-85
2023/07/23 11:48:45;;;;;;;;;;;;;;;;;;6257834;23;19922;-88
2023/07/23 11:51:11;;;;;;;;;;;;;;;;;;6233121;23;19915;-87
2023/07/23 11:53:37;;;;;;;;;;;;;;;;;;6233086;23;20322;-85
2023/07/23 11:59:07;;;;;;;;;;;;;;;;;;6269674;23;19911;-86
2023/07/23 12:01:35;;;;;;;;;;;;;;;;;;6231554;23;19920;-86
2023/07/23 12:04:03;;;;;;;;;;;;;;;;;;6256027;23;19920;-86
2023/07/23 12:06:29;;;;;;;;;;;;;;;;;;6250330;23;19973;-87
2023/07/23 17:33:24;;;;;;;0.03;0.03;;;;;;;;;;5211673;27;20330;-82
2023/07/23 17:35:51;;;;;;;0.10;0.10;;;;;;;;;;5147170;27;20081;-84
2023/07/23 17:38:17;;;;;;;0.10;0.10;;;;;;;;;;5001501;28;3476838;-83
2023/07/23 17:40:44;;;;;;;0.00;0.00;;;;;;;;;;5114576;27;20104;-83
2023/07/23 17:43:14;;;;;;;0.05;0.05;;;;;;;;;;5135345;27;20102;-83
2023/07/23 17:45:41;;;;;;;0.00;0.00;;;;;;;;;;5166987;27;20046;-84
2023/07/23 17:48:14;;;;;;;0.00;0.00;;;;;;;;;;5136148;27;20052;-83
2023/07/23 17:50:40;;;;;;;0.10;0.10;;;;;;;;;;5152595;27;20091;-83
2023/07/23 17:53:08;;;;;;;0.17;0.17;;;;;;;;;;5130575;27;20110;-83
2023/07/23 17:55:35;;;;;;;0.00;0.00;;;;;;;;;;5139398;28;20037;-83
2023/07/23 17:58:02;;;;;;;0.10;0.10;;;;;;;;;;5130722;28;20502;-84
2023/07/23 18:00:32;;;;;;;0.20;0.20;;;;;;;;;;5128417;28;20042;-84
2023/07/23 18:02:58;;;;;;;0.10;0.10;;;;;;;;;;5097586;28;20042;-83
2023/07/23 18:05:25;;;;;;;0.08;0.08;;;;;;;;;;5109106;28;20039;-83
2023/07/23 18:07:51;;;;;;;0.00;0.00;;;;;;;;;;5107549;28;20099;-83
2023/07/23 18:10:22;;;;;;;0.00;0.00;;;;;;;;;;5129375;28;20066;-84
2023/07/23 18:12:50;;;;;;;0.00;0.00;;;;;;;;;;5124464;28;20050;-82
2023/07/23 18:15:37;;;;;;;0.00;0.00;;;;;;;;;;5129701;28;20144;-83
2023/07/23 18:18:03;;;;;;;0.00;0.00;;;;;;;;;;5105430;28;20039;-82
2023/07/23 18:20:45;;;;;;;0.10;0.10;;;;;;;;;;5114478;28;20063;-83
2023/07/23 18:23:12;;;;;;;0.10;0.10;;;;;;;;;;5110029;28;20042;-83
2023/07/23 18:25:42;;;;;;;0.00;0.00;;;;;;;;;;5126227;28;20047;-82
2023/07/23 18:28:11;;;;;;;0.10;0.10;;;;;;;;;;5115149;28;20073;-83
2023/07/23 18:30:42;;;;;;;0.00;0.00;;;;;;;;;;5117929;27;20042;-83
2023/07/23 18:33:08;;;;;;;0.05;0.05;;;;;;;;;;5141287;27;20504;-82
2023/07/23 18:35:36;;;;;;;0.10;0.10;;;;;;;;;;5117894;27;20039;-85
2023/07/23 18:38:04;;;;;;;0.10;0.10;;;;;;;;;;5104665;27;20041;-84
2023/07/23 18:41:08;;;;;;;0.10;0.10;;;;;;;;;;5137036;27;20044;-84
2023/07/23 18:43:35;;;;;;;0.00;0.00;;;;;;;;;;5020530;28;20049;-83
2023/07/23 18:46:01;;;;;;;0.10;0.10;;;;;;;;;;5033567;28;20041;-83
2023/07/23 18:48:27;;;;;;;0.05;0.05;;;;;;;;;;5028464;28;20105;-83
2023/07/23 18:50:53;;;;;;;0.20;0.20;;;;;;;;;;5013997;28;20047;-84
2023/07/23 18:53:36;;;;;;;0.00;0.00;;;;;;;;;;5099807;28;20039;-84
2023/07/23 18:56:17;;;;;;;0.00;0.00;;;;;;;;;;5118665;28;20056;-83
2023/07/23 18:58:45;;;;;;;0.03;0.03;;;;;;;;;;5099189;28;20031;-84
2023/07/23 19:01:16;;;;;;;0.13;0.13;;;;;;;;;;5099454;28;20058;-84
2023/07/23 19:03:44;;;;;;;0.00;0.00;;;;;;;;;;5134956;28;20135;-83
2023/07/23 19:06:13;;;;;;;0.10;0.10;;;;;;;;;;5113821;28;20036;-84
2023/07/23 19:08:43;;;;;;;0.08;0.08;;;;;;;;;;5112539;28;20086;-82
2023/07/23 19:11:10;;;;;;;0.00;0.00;;;;;;;;;;5101666;28;20036;-82
2023/07/23 19:13:39;;;;;;;0.10;0.10;;;;;;;;;;5110332;27;20459;-83
2023/07/23 19:16:34;;;;;;;0.03;0.03;;;;;;;;;;5122275;27;20095;-84
2023/07/23 19:19:00;;;;;;;0.00;0.00;;;;;;;;;;5134935;27;20046;-82
2023/07/23 19:21:27;;;;;;;0.05;0.05;;;;;;;;;;5136234;27;20043;-83
2023/07/23 19:23:54;;;;;;;0.10;0.10;;;;;;;;;;5114723;27;20070;-83
2023/07/23 19:26:23;;;;;;;0.17;0.17;;;;;;;;;;5120166;27;20035;-85
2023/07/23 19:28:49;;;;;;;0.08;0.08;;;;;;;;;;5120000;27;20053;-84
2023/07/23 19:31:21;;;;;;;0.00;0.00;;;;;;;;;;5118021;27;20091;-85
2023/07/23 19:33:47;;;;;;;0.08;0.08;;;;;;;;;;5134638;27;20051;-83
2023/07/23 19:36:14;;;;;;;0.10;0.10;;;;;;;;;;5117678;27;20039;-84
2023/07/23 19:38:43;;;;;;;0.00;0.00;;;;;;;;;;5134964;27;20043;-83
2023/07/23 19:41:10;;;;;;;0.10;0.10;;;;;;;;;;5118333;27;20039;-84
2023/07/23 19:43:38;;;;;;;0.00;0.00;;;;;;;;;;5118083;28;20039;-83
2023/07/23 19:46:04;;;;;;;0.03;0.03;;;;;;;;;;5136204;27;20092;-84
2023/07/23 19:48:39;;;;;;;0.00;0.00;;;;;;;;;;5134036;27;20050;-84
2023/07/23 19:51:06;;;;;;;0.00;0.00;;;;;;;;;;5099173;28;20036;-84
2023/07/23 19:53:37;;;;;;;0.10;0.10;;;;;;;;;;5097342;28;20039;-84
2023/07/23 19:59:09;;;;;;;0.00;0.00;;;;;;;;;;5112406;28;20047;-83
2023/07/23 20:01:35;;;;;;;0.03;0.03;;;;;;;;;;5097159;28;20069;-83
2023/07/23 20:04:03;;;;;;;0.00;0.00;;;;;;;;;;5096323;28;20035;-84
2023/07/23 20:06:30;;;;;;;0.00;0.00;;;;;;;;;;5126555;27;20038;-85
2023/07/23 20:08:58;;;;;;;0.10;0.10;;;;;;;;;;5135271;27;20031;-84
2023/07/23 20:11:27;;;;;;;0.30;0.30;;;;;;;;;;5152775;27;20509;-82
2023/07/23 20:13:56;;;;;;;0.00;0.00;;;;;;;;;;5133283;27;20098;-84
2023/07/23 20:16:26;;;;;;;0.10;0.10;;;;;;;;;;5113775;28;20099;-84
2023/07/23 20:19:00;;;;;;;0.00;0.00;;;;;;;;;;5099308;28;20043;-84
2023/07/23 20:21:27;;;;;;;0.10;0.10;;;;;;;;;;5096853;28;20023;-85
2023/07/23 20:23:53;;;;;;;0.00;0.00;;;;;;;;;;5097560;28;20106;-84
2023/07/23 20:26:19;;;;;;;0.10;0.10;;;;;;;;;;5097650;28;20040;-83
2023/07/23 20:28:46;;;;;;;0.10;0.10;;;;;;;;;;5097695;28;20397;-85
2023/07/23 20:31:12;;;;;;;0.00;0.00;;;;;;;;;;5079265;28;20047;-85
2023/07/23 20:33:40;;;;;;;0.00;0.00;;;;;;;;;;5096532;28;20083;-85
2023/07/23 20:36:06;;;;;;;0.00;0.00;;;;;;;;;;5113131;28;20032;-85
2023/07/23 20:38:54;;;;;;;0.00;0.00;;;;;;;;;;5097666;28;20086;-85
2023/07/23 20:41:20;;;;;;;0.10;0.10;;;;;;;;;;5096693;28;20043;-84
2023/07/23 20:43:50;;;;;;;0.00;0.00;;;;;;;;;;5098285;28;20039;-84
2023/07/23 20:46:20;;;;;;;0.10;0.10;;;;;;;;;;5096982;28;20035;-85
2023/07/23 20:48:46;;;;;;;0.08;0.08;;;;;;;;;;5096859;28;20042;-84
2023/07/23 20:51:15;;;;;;;0.10;0.10;;;;;;;;;;5114290;28;20043;-86
2023/07/23 20:53:42;;;;;;;0.08;0.08;;;;;;;;;;5097660;28;20078;-84
2023/07/23 20:56:16;;;;;;;0.20;0.20;;;;;;;;;;5094775;28;20534;-84
2023/07/23 21:02:09;;;;;;;0.00;0.00;;;;;;;;;;5118401;28;20412;-84
2023/07/23 21:04:35;;;;;;;0.10;0.10;;;;;;;;;;5099859;27;20039;-84
2023/07/23 21:07:05;;;;;;;0.10;0.10;;;;;;;;;;5114173;27;20036;-84
2023/07/23 21:09:31;;;;;;;0.00;0.00;;;;;;;;;;5102463;28;20043;-83
2023/07/23 21:11:57;;;;;;;0.10;0.10;;;;;;;;;;5094519;28;20043;-84
2023/07/23 21:14:25;;;;;;;0.05;0.05;;;;;;;;;;5096058;28;20074;-83
2023/07/23 21:16:51;;;;;;;0.10;0.10;;;;;;;;;;5095017;28;20043;-84
2023/07/23 21:19:17;;;;;;;0.10;0.10;;;;;;;;;;5107611;28;20404;-85
2023/07/23 21:21:44;;;;;;;0.00;0.00;;;;;;;;;;5107364;28;20124;-84
2023/07/23 21:24:19;;;;;;;0.00;0.00;;;;;;;;;;5114911;28;20143;-85
2023/07/23 21:26:48;;;;;;;0.00;0.00;;;;;;;;;;5120166;28;20038;-84
2023/07/23 21:29:14;;;;;;;0.00;0.00;;;;;;;;;;5118295;28;20087;-83
2023/07/23 21:38:07;;;;;;;0.10;0.10;;;;;;;;;;5133883;28;20050;-84
2023/07/23 21:40:34;;;;;;;0.10;0.10;;;;;;;;;;5123122;28;20050;-85
2023/07/23 21:43:12;;;;;;;0.05;0.05;;;;;;;;;;5151534;28;20035;-85
2023/07/23 21:45:45;;;;;;;0.10;0.10;;;;;;;;;;5132036;28;20058;-85
2023/07/23 21:48:13;;;;;;;0.00;0.00;;;;;;;;;;5115964;28;20039;-84
2023/07/23 21:50:40;;;;;;;0.10;0.10;;;;;;;;;;5114925;28;20043;-84
2023/07/23 21:53:06;;;;;;;0.10;0.10;;;;;;;;;;5132661;28;20046;-84
2023/07/23 21:55:33;;;;;;;0.10;0.10;;;;;;;;;;5126134;28;20073;-84
2023/07/23 21:57:59;;;;;;;0.00;0.00;;;;;;;;;;5117747;28;20053;-86
2023/07/23 22:00:26;;;;;;;0.00;0.00;;;;;;;;;;5111430;28;20035;-85
2023/07/23 22:02:52;;;;;;;0.00;0.00;;;;;;;;;;5115867;28;20066;-84
2023/07/23 22:05:21;;;;;;;0.00;0.00;;;;;;;;;;5116569;28;20031;-84
2023/07/23 22:07:47;;;;;;;0.10;0.10;;;;;;;;;;5119001;27;20050;-85
2023/07/23 22:10:14;;;;;;;0.00;0.00;;;;;;;;;;5116774;28;20038;-85
2023/07/23 22:12:40;;;;;;;0.00;0.00;;;;;;;;;;5107934;27;20031;-85
2023/07/23 22:15:06;;;;;;;0.10;0.10;;;;;;;;;;5105862;27;20035;-86
2023/07/23 22:17:33;;;;;;;0.00;0.00;;;;;;;;;;5105542;27;20035;-86
2023/07/23 22:20:11;;;;;;;0.10;0.10;;;;;;;;;;5107960;27;20017;-85